New Germany, Canada
Current Conditions -  °F | °C
As of 5:00 AM on Friday 31 Oct 2014 (Local Time) from CYZX Reporting Station
Few Clouds Few Clouds  
Wind Chill: 36°   Ceiling: Unl
Heat Index: 36°   Visibility: 15mi
Dew Point: 36°   Wind: 0mph
Humidity: 100%   Direction: NA
Pressure: 29.99"   Gusts: NA
Location:  44.55°N, 64.72°W
Report Text: CYZX 310800Z 00000KT 15SM FEW060 02/02 A2999 RMK SC2 WNDY HILL 08007KT SLP158
Loading
Personal Weather Stations






























Interactive Weather Map
Tropical Storm Tracking
New forecast layout! Learn more

10-Day Weather Forecast

Advertisements
Track Severe Weather on mobile